Time;durP1;ratioP1;P1;durP2;ratioP2;P2;SDS_P1;SDS_P2;PMS_P1;PMS_P2;Temp;Humidity;BMP_temperature;BMP_pressure;BME280_temperature;BME280_humidity;BME280_pressure;Samples;Min_cycle;Max_cycle;Signal;HPM_P1;HPM_P2
2023/12/17 00:01:32;;;;;;;18.83;11.25;;;;;;;4.06;100.00;100778.75;5030348;28;20072;-70
2023/12/17 00:03:58;;;;;;;19.20;11.27;;;;;;;4.16;100.00;100780.13;5028603;28;20037;-69
2023/12/17 00:06:23;;;;;;;19.02;12.30;;;;;;;4.26;100.00;100775.53;5025004;28;20028;-69
2023/12/17 00:08:49;;;;;;;15.52;10.30;;;;;;;4.28;100.00;100766.84;5050019;28;20021;-69
2023/12/17 00:11:14;;;;;;;18.17;11.35;;;;;;;4.36;100.00;100766.56;5030499;28;20518;-68
2023/12/17 00:13:40;;;;;;;17.33;11.70;;;;;;;4.39;100.00;100777.63;5029694;28;20096;-69
2023/12/17 00:16:06;;;;;;;15.55;10.30;;;;;;;4.42;100.00;100771.53;5033753;28;20120;-69
2023/12/17 00:18:32;;;;;;;16.02;11.60;;;;;;;4.50;100.00;100773.84;5027403;28;20032;-69
2023/12/17 00:21:03;;;;;;;16.98;10.57;;;;;;;4.47;100.00;100749.00;5032798;28;20032;-68
2023/12/17 00:23:28;;;;;;;18.10;10.77;;;;;;;4.52;100.00;100761.75;5031744;28;20032;-68
2023/12/17 00:25:54;;;;;;;16.10;10.30;;;;;;;4.56;100.00;100761.59;5047368;28;20032;-68
2023/12/17 00:28:19;;;;;;;16.02;10.75;;;;;;;4.45;100.00;100768.00;5047842;28;20777;-69
2023/12/17 00:30:47;;;;;;;14.93;10.10;;;;;;;4.42;100.00;100758.66;5051022;28;20103;-69
2023/12/17 00:33:12;;;;;;;19.45;11.65;;;;;;;4.50;100.00;100756.63;5034068;28;20546;-69
2023/12/17 00:35:37;;;;;;;17.02;11.35;;;;;;;4.21;100.00;100706.97;5043496;28;20032;-69
2023/12/17 00:38:03;;;;;;;15.55;10.18;;;;;;;4.54;100.00;100765.94;5048355;28;20033;-69
2023/12/17 00:40:31;;;;;;;16.20;10.63;;;;;;;4.22;100.00;100716.38;5029513;28;20047;-69
2023/12/17 00:42:56;;;;;;;16.38;11.27;;;;;;;4.56;100.00;100765.88;5051286;28;20102;-68
2023/12/17 00:45:24;;;;;;;19.15;11.18;;;;;;;4.54;100.00;100767.69;5045126;28;20735;-69
2023/12/17 00:47:52;;;;;;;18.17;11.13;;;;;;;4.15;100.00;100716.66;5034733;28;20077;-68
2023/12/17 00:50:17;;;;;;;13.95;10.52;;;;;;;4.42;100.00;100766.38;5049214;28;20035;-70
2023/12/17 00:52:43;;;;;;;16.73;10.60;;;;;;;4.46;100.00;100756.81;5033525;28;20033;-68
2023/12/17 00:55:08;;;;;;;16.33;10.38;;;;;;;4.19;100.00;100702.78;5037951;28;20049;-68
2023/12/17 00:57:36;;;;;;;13.38;9.23;;;;;;;4.48;100.00;100739.56;5040102;28;20025;-69
2023/12/17 01:00:03;;;;;;;15.38;10.50;;;;;;;4.43;100.00;100740.56;5031543;28;20703;-69
2023/12/17 01:02:33;;;;;;;19.77;10.07;;;;;;;4.53;100.00;100725.63;5032568;28;20090;-69
2023/12/17 01:05:01;;;;;;;16.45;10.63;;;;;;;4.71;100.00;100733.56;5037343;28;20060;-69
2023/12/17 01:07:29;;;;;;;18.23;9.63;;;;;;;4.77;100.00;100739.34;5030847;28;20029;-70
2023/12/17 01:09:54;;;;;;;17.02;10.45;;;;;;;4.87;100.00;100741.59;5046019;28;20032;-68
2023/12/17 01:12:24;;;;;;;14.35;9.55;;;;;;;4.85;100.00;100748.56;5049002;28;20167;-69
2023/12/17 01:14:50;;;;;;;14.95;9.57;;;;;;;4.53;100.00;100725.63;5046339;28;20029;-69
2023/12/17 01:17:15;;;;;;;15.77;10.38;;;;;;;4.56;100.00;100743.56;5033964;28;20050;-69
2023/12/17 01:19:40;;;;;;;14.98;10.38;;;;;;;4.42;100.00;100740.63;5047589;28;20070;-68
2023/12/17 01:22:11;;;;;;;16.95;10.00;;;;;;;4.51;100.00;100737.72;5039088;28;20031;-68
2023/12/17 01:24:37;;;;;;;15.23;9.93;;;;;;;4.51;100.00;100727.41;5044426;28;20036;-68
2023/12/17 01:27:06;;;;;;;14.63;9.98;;;;;;;4.39;100.00;100694.34;5026365;28;20047;-65
2023/12/17 01:29:34;;;;;;;14.00;9.85;;;;;;;4.23;100.00;100669.16;5040932;28;20450;-67
2023/12/17 01:31:59;;;;;;;13.68;9.40;;;;;;;4.51;100.00;100708.53;5043052;28;20035;-67
2023/12/17 01:34:27;;;;;;;14.88;9.70;;;;;;;4.59;100.00;100722.81;5054501;28;20040;-67
2023/12/17 01:36:55;;;;;;;16.35;10.00;;;;;;;4.57;100.00;100739.25;5047281;28;20024;-67
2023/12/17 01:39:23;;;;;;;17.00;10.20;;;;;;;4.47;100.00;100730.13;5043329;28;20714;-67
2023/12/17 01:41:50;;;;;;;13.95;9.38;;;;;;;4.41;100.00;100708.84;5051132;28;20157;-68
2023/12/17 01:44:16;;;;;;;17.33;9.90;;;;;;;4.57;100.00;100713.47;5026984;28;21175;-68
2023/12/17 01:46:44;;;;;;;15.25;9.63;;;;;;;4.60;100.00;100718.53;5036121;28;20032;-69
2023/12/17 01:49:09;;;;;;;13.48;9.43;;;;;;;4.33;100.00;100667.09;5026664;28;20028;-69
2023/12/17 01:51:39;;;;;;;19.60;10.15;;;;;;;4.68;100.00;100716.50;5035376;28;20485;-66
2023/12/17 01:54:07;;;;;;;14.95;9.30;;;;;;;4.51;100.00;100706.81;5042513;28;20053;-68
2023/12/17 01:56:32;;;;;;;17.13;9.65;;;;;;;4.15;100.00;100671.13;5026502;28;20028;-67
2023/12/17 01:59:02;;;;;;;14.00;9.50;;;;;;;4.50;100.00;100723.16;5039832;28;20030;-69
2023/12/17 02:01:30;;;;;;;14.07;10.20;;;;;;;4.58;100.00;100723.72;5047627;28;20054;-67
2023/12/17 02:03:55;;;;;;;15.80;9.52;;;;;;;4.68;100.00;100726.81;5029288;28;20028;-69
2023/12/17 02:06:23;;;;;;;15.02;9.77;;;;;;;4.73;100.00;100716.34;5038272;28;20861;-68
2023/12/17 02:08:51;;;;;;;14.93;9.38;;;;;;;4.67;100.00;100721.69;5025589;28;20440;-67
2023/12/17 02:11:16;;;;;;;14.85;9.77;;;;;;;4.40;100.00;100706.34;5043086;28;20582;-67
2023/12/17 02:13:42;;;;;;;16.00;10.88;;;;;;;4.39;100.00;100709.81;5041352;28;20041;-68
2023/12/17 02:16:09;;;;;;;14.00;9.15;;;;;;;3.94;100.00;100647.00;5039397;28;20051;-68
2023/12/17 02:18:37;;;;;;;13.65;9.70;;;;;;;4.21;100.00;100699.25;5045463;28;20033;-67
2023/12/17 02:21:03;;;;;;;15.45;9.52;;;;;;;4.34;100.00;100693.66;5049754;28;20380;-68
2023/12/17 02:23:28;;;;;;;16.80;10.00;;;;;;;4.43;100.00;100696.78;5054753;28;20044;-67
2023/12/17 02:25:53;;;;;;;13.45;9.07;;;;;;;4.36;100.00;100660.97;5053046;28;20024;-68
2023/12/17 02:28:19;;;;;;;16.13;8.68;;;;;;;4.64;100.00;100691.75;5052648;28;20093;-67
2023/12/17 02:30:46;;;;;;;16.08;9.68;;;;;;;4.74;100.00;100705.13;5048289;28;20475;-70
2023/12/17 02:33:12;;;;;;;15.85;8.73;;;;;;;4.37;100.00;100650.63;5050110;28;20025;-68
2023/12/17 02:35:37;;;;;;;16.10;9.77;;;;;;;4.59;100.00;100701.38;5032150;28;21284;-69
2023/12/17 02:38:02;;;;;;;13.45;9.43;;;;;;;4.56;100.00;100698.91;5036792;28;20044;-68
2023/12/17 02:40:28;;;;;;;16.15;9.65;;;;;;;4.51;100.00;100703.38;5031393;28;20071;-67
2023/12/17 02:42:55;;;;;;;13.90;9.25;;;;;;;4.10;100.00;100649.84;5034407;28;20032;-70
2023/12/17 02:45:23;;;;;;;14.50;9.63;;;;;;;3.95;100.00;100660.69;5042748;28;20024;-67
2023/12/17 02:47:49;;;;;;;17.02;10.68;;;;;;;4.03;100.00;100693.00;5028646;28;20160;-68
2023/12/17 02:50:14;;;;;;;15.07;9.90;;;;;;;4.20;99.94;100700.16;5047761;28;20033;-67
2023/12/17 02:52:39;;;;;;;15.15;10.30;;;;;;;3.85;98.90;100647.28;5032675;28;20040;-67
2023/12/17 02:55:05;;;;;;;17.55;10.20;;;;;;;4.11;99.09;100705.63;5037181;28;20475;-67
2023/12/17 02:57:31;;;;;;;14.20;10.27;;;;;;;4.03;98.98;100690.44;5042106;28;20029;-67
2023/12/17 02:59:58;;;;;;;15.52;10.38;;;;;;;3.96;98.67;100690.69;5054972;28;20035;-67
2023/12/17 03:02:24;;;;;;;14.40;10.45;;;;;;;3.64;98.50;100641.97;5044899;28;20032;-67
2023/12/17 03:04:49;;;;;;;16.55;11.05;;;;;;;3.82;98.55;100684.25;5028533;28;20659;-66
2023/12/17 03:07:15;;;;;;;17.67;11.07;;;;;;;3.74;98.96;100681.13;5046750;28;20111;-68
2023/12/17 03:09:42;;;;;;;17.75;11.43;;;;;;;3.56;99.70;100643.09;5052178;28;20044;-68
2023/12/17 03:12:08;;;;;;;16.50;11.07;;;;;;;3.65;99.13;100664.25;5050624;28;20496;-68
2023/12/17 03:14:35;;;;;;;15.77;10.77;;;;;;;3.82;98.30;100679.13;5050911;28;20029;-68
2023/12/17 03:17:01;;;;;;;16.90;11.15;;;;;;;3.74;98.79;100680.25;5053471;28;20036;-68
2023/12/17 03:19:27;;;;;;;14.75;10.80;;;;;;;3.29;99.44;100634.59;5048605;28;20098;-66
2023/12/17 03:21:52;;;;;;;18.70;11.30;;;;;;;3.56;98.34;100673.97;5037502;28;20036;-68
2023/12/17 03:24:20;;;;;;;17.85;11.93;;;;;;;3.25;98.76;100618.41;5036556;28;20064;-67
2023/12/17 03:26:48;;;;;;;17.20;11.40;;;;;;;3.49;97.70;100668.22;5044675;28;20029;-67
2023/12/17 03:29:16;;;;;;;17.27;12.68;;;;;;;3.49;97.56;100664.78;5048462;28;20116;-68
2023/12/17 03:31:44;;;;;;;18.33;11.95;;;;;;;3.35;97.82;100630.06;5051231;28;20483;-67
2023/12/17 03:34:09;;;;;;;17.92;12.27;;;;;;;3.09;98.87;100607.75;5048336;28;20032;-68
2023/12/17 03:36:37;;;;;;;18.75;11.95;;;;;;;3.18;99.25;100663.19;5043855;28;20032;-67
2023/12/17 03:39:06;;;;;;;15.13;11.07;;;;;;;3.25;100.00;100665.53;5047406;28;20397;-67
2023/12/17 03:41:34;;;;;;;16.08;11.52;;;;;;;3.37;100.00;100672.00;5051711;28;20028;-68
2023/12/17 03:43:59;;;;;;;17.08;10.77;;;;;;;3.47;100.00;100675.97;5034869;28;20028;-68
2023/12/17 03:46:27;;;;;;;17.02;10.32;;;;;;;3.52;100.00;100667.25;5045414;28;20123;-67
2023/12/17 03:48:55;;;;;;;18.83;11.85;;;;;;;3.58;100.00;100669.66;5036478;28;20040;-68
2023/12/17 03:51:21;;;;;;;15.73;10.77;;;;;;;3.60;100.00;100663.56;5033150;28;20589;-68
2023/12/17 03:53:48;;;;;;;15.43;10.32;;;;;;;3.65;100.00;100664.25;5049202;28;20048;-68
2023/12/17 03:56:15;;;;;;;16.20;9.23;;;;;;;3.70;100.00;100664.06;5044899;28;20412;-67
2023/12/17 03:58:41;;;;;;;16.48;9.57;;;;;;;3.65;100.00;100647.94;5052451;28;21108;-67
2023/12/17 04:01:07;;;;;;;14.80;9.52;;;;;;;3.75;100.00;100656.22;5026798;28;20032;-68
2023/12/17 04:03:33;;;;;;;14.32;10.48;;;;;;;3.87;100.00;100655.81;5056340;28;20043;-67
2023/12/17 04:05:59;;;;;;;15.65;10.82;;;;;;;3.85;100.00;100660.16;5029397;28;20037;-67
2023/12/17 04:08:27;;;;;;;16.33;9.43;;;;;;;3.87;100.00;100652.38;5037870;28;20705;-68
2023/12/17 04:10:52;;;;;;;13.50;8.45;;;;;;;3.56;100.00;100610.53;5028000;28;20021;-68
2023/12/17 04:13:18;;;;;;;13.30;8.45;;;;;;;3.81;100.00;100653.44;5044043;28;20032;-69
2023/12/17 04:15:46;;;;;;;14.90;9.45;;;;;;;3.93;100.00;100652.19;5032363;28;20032;-68
2023/12/17 04:18:13;;;;;;;14.40;9.50;;;;;;;3.95;100.00;100642.69;5048254;28;20036;-67
2023/12/17 04:20:38;;;;;;;14.98;9.57;;;;;;;3.96;100.00;100644.34;5047190;28;20055;-67
2023/12/17 04:23:04;;;;;;;13.32;9.80;;;;;;;3.72;100.00;100638.31;5046115;28;20135;-68
2023/12/17 04:25:29;;;;;;;14.75;9.05;;;;;;;3.66;100.00;100640.19;5042182;28;20837;-67
2023/12/17 04:27:57;;;;;;;12.63;8.88;;;;;;;3.57;100.00;100637.91;5050324;28;20437;-68
2023/12/17 04:30:22;;;;;;;16.13;9.40;;;;;;;3.39;100.00;100594.81;5044998;28;20028;-67
2023/12/17 04:32:50;;;;;;;14.45;8.77;;;;;;;3.76;100.00;100642.44;5050522;28;20480;-68
2023/12/17 04:35:16;;;;;;;15.05;8.60;;;;;;;3.89;100.00;100642.88;5033022;28;20016;-69
2023/12/17 04:37:44;;;;;;;12.32;8.38;;;;;;;4.03;100.00;100653.53;5036226;28;20032;-68
2023/12/17 04:40:10;;;;;;;14.00;8.68;;;;;;;4.02;100.00;100668.16;5032082;28;20032;-68
2023/12/17 04:42:35;;;;;;;12.75;9.10;;;;;;;3.88;100.00;100654.06;5044608;28;20893;-68
2023/12/17 04:45:01;;;;;;;13.73;9.60;;;;;;;3.58;100.00;100608.75;5048619;28;20102;-68
2023/12/17 04:47:29;;;;;;;13.60;9.63;;;;;;;3.92;100.00;100661.63;5052322;28;20028;-68
2023/12/17 04:49:54;;;;;;;13.02;8.07;;;;;;;3.86;100.00;100656.69;5040231;28;20047;-68
2023/12/17 04:52:20;;;;;;;14.68;8.63;;;;;;;3.57;100.00;100611.34;5030561;28;20037;-68
2023/12/17 04:54:45;;;;;;;13.57;8.25;;;;;;;3.86;100.00;100654.13;5033953;28;20928;-67
2023/12/17 04:57:13;;;;;;;12.18;7.40;;;;;;;3.87;100.00;100660.09;5049028;28;20025;-67
2023/12/17 04:59:41;;;;;;;13.88;8.32;;;;;;;3.72;100.00;100657.16;5047293;28;20033;-68
2023/12/17 05:02:06;;;;;;;11.30;7.03;;;;;;;3.69;100.00;100646.13;5043893;28;20036;-67
2023/12/17 05:04:32;;;;;;;14.02;8.32;;;;;;;3.74;100.00;100650.25;5050088;28;21086;-68
2023/12/17 05:06:57;;;;;;;11.57;7.72;;;;;;;3.78;100.00;100646.66;5046957;28;20013;-68
2023/12/17 05:09:25;;;;;;;13.82;7.85;;;;;;;3.74;100.00;100650.25;5053807;28;20642;-67
2023/12/17 05:11:50;;;;;;;13.93;8.32;;;;;;;3.75;100.00;100653.66;5047974;28;20028;-68
2023/12/17 05:14:15;;;;;;;13.52;7.75;;;;;;;3.78;100.00;100656.13;5033752;28;20499;-67
2023/12/17 05:16:41;;;;;;;13.38;8.23;;;;;;;3.75;100.00;100659.63;5048587;28;20081;-68
2023/12/17 05:19:07;;;;;;;14.18;8.05;;;;;;;3.74;100.00;100664.81;5045199;28;20751;-69
2023/12/17 05:21:32;;;;;;;12.15;7.75;;;;;;;3.84;100.00;100661.06;5049233;28;20028;-68
2023/12/17 05:24:01;;;;;;;11.02;7.22;;;;;;;3.82;100.00;100665.41;5033445;28;20055;-68
2023/12/17 05:26:27;;;;;;;13.93;8.00;;;;;;;3.61;100.00;100620.66;5046057;28;20020;-69
2023/12/17 05:28:52;;;;;;;12.57;6.95;;;;;;;3.93;100.00;100671.03;5046639;28;20494;-68
2023/12/17 05:31:18;;;;;;;10.75;7.18;;;;;;;3.60;100.00;100616.41;5046473;28;20029;-68
2023/12/17 05:33:46;;;;;;;10.90;6.82;;;;;;;3.60;100.00;100634.41;5034888;28;20127;-69
2023/12/17 05:36:12;;;;;;;14.43;6.88;;;;;;;3.87;100.00;100678.97;5046187;28;20025;-68
2023/12/17 05:38:37;;;;;;;11.90;6.65;;;;;;;3.79;100.00;100653.47;5030948;28;20032;-68
2023/12/17 05:41:02;;;;;;;13.43;6.78;;;;;;;3.83;100.00;100655.06;5045220;28;20124;-68
2023/12/17 05:43:28;;;;;;;10.18;6.90;;;;;;;3.76;100.00;100656.16;5028098;28;20791;-68
2023/12/17 05:45:53;;;;;;;11.02;6.97;;;;;;;3.58;100.00;100646.50;5047828;28;20348;-69
2023/12/17 05:48:21;;;;;;;13.15;6.82;;;;;;;3.77;100.00;100669.88;5025477;28;20115;-68
2023/12/17 05:50:47;;;;;;;11.40;7.10;;;;;;;3.72;100.00;100672.59;5035477;28;20060;-69
2023/12/17 05:53:13;;;;;;;11.35;7.20;;;;;;;3.68;100.00;100668.44;5034252;28;20615;-69
2023/12/17 05:55:38;;;;;;;13.70;6.88;;;;;;;3.69;100.00;100674.41;5033430;28;20177;-68
2023/12/17 05:58:06;;;;;;;13.13;7.20;;;;;;;3.75;100.00;100666.50;5045944;28;20024;-68
2023/12/17 06:00:34;;;;;;;10.68;7.22;;;;;;;3.75;100.00;100674.22;5046650;28;20723;-69
2023/12/17 06:03:01;;;;;;;12.25;7.63;;;;;;;3.89;100.00;100694.34;5032296;28;20036;-68
2023/12/17 06:05:31;;;;;;;13.38;7.78;;;;;;;4.03;100.00;100692.16;5031632;28;20032;-68
2023/12/17 06:07:59;;;;;;;10.52;6.57;;;;;;;4.01;100.00;100689.63;5051745;28;20040;-70
2023/12/17 06:10:25;;;;;;;13.73;7.07;;;;;;;3.85;100.00;100650.72;5047098;28;20044;-69
2023/12/17 06:12:52;;;;;;;10.88;6.60;;;;;;;4.07;100.00;100688.59;5036427;28;20063;-70
2023/12/17 06:15:20;;;;;;;11.63;7.10;;;;;;;3.64;100.00;100644.53;5041272;28;20078;-69
2023/12/17 06:17:46;;;;;;;9.93;6.28;;;;;;;3.91;100.00;100683.13;5031264;28;20472;-68
2023/12/17 06:20:11;;;;;;;12.10;6.32;;;;;;;3.90;100.00;100689.16;5047148;28;20043;-69
2023/12/17 06:22:37;;;;;;;10.00;6.38;;;;;;;4.03;100.00;100689.56;5054511;28;20061;-69
2023/12/17 06:25:05;;;;;;;10.13;6.45;;;;;;;3.79;100.00;100656.03;5044307;28;20116;-69
2023/12/17 06:27:31;;;;;;;10.80;6.72;;;;;;;3.98;100.00;100694.03;5035218;28;20036;-67
2023/12/17 06:29:59;;;;;;;10.93;6.35;;;;;;;4.10;100.00;100697.94;5030311;28;20039;-71
2023/12/17 06:32:24;;;;;;;10.23;6.38;;;;;;;4.06;100.00;100691.22;5049308;28;20028;-68
2023/12/17 06:34:50;;;;;;;9.30;5.90;;;;;;;3.99;100.00;100690.59;5034738;28;20422;-68
2023/12/17 06:37:15;;;;;;;10.05;6.65;;;;;;;3.84;100.00;100705.63;5044265;28;20029;-69
2023/12/17 06:39:42;;;;;;;10.02;6.38;;;;;;;3.85;100.00;100703.91;5045953;28;20025;-68
2023/12/17 06:42:09;;;;;;;10.15;6.30;;;;;;;3.79;100.00;100697.22;5027308;28;20037;-69
2023/12/17 06:44:35;;;;;;;12.15;6.35;;;;;;;3.82;100.00;100697.13;5031778;28;20825;-69
2023/12/17 06:47:03;;;;;;;9.60;6.03;;;;;;;3.76;100.00;100696.47;5041155;28;20028;-68
2023/12/17 06:49:28;;;;;;;10.07;6.22;;;;;;;3.84;100.00;100703.06;5030815;28;20029;-69
2023/12/17 06:51:56;;;;;;;9.35;6.20;;;;;;;4.02;100.00;100706.75;5034098;28;20070;-69
2023/12/17 06:54:23;;;;;;;11.75;6.47;;;;;;;4.07;100.00;100701.47;5032204;28;20781;-69
2023/12/17 06:56:49;;;;;;;10.07;6.15;;;;;;;4.13;100.00;100714.13;5047520;28;20048;-68
2023/12/17 06:59:14;;;;;;;11.05;6.55;;;;;;;3.87;100.00;100672.97;5029247;28;20326;-69
2023/12/17 07:01:42;;;;;;;12.48;6.50;;;;;;;4.09;100.00;100719.41;5034170;28;20024;-69
2023/12/17 07:04:07;;;;;;;12.70;6.88;;;;;;;4.09;100.00;100719.41;5047335;28;20033;-68
2023/12/17 07:06:32;;;;;;;11.57;6.60;;;;;;;4.12;100.00;100716.75;5043913;28;20966;-68
2023/12/17 07:08:58;;;;;;;10.05;6.60;;;;;;;4.11;100.00;100710.78;5048009;28;20032;-67
2023/12/17 07:11:23;;;;;;;10.10;6.55;;;;;;;4.14;100.00;100726.09;5036025;28;20032;-68
2023/12/17 07:13:51;;;;;;;10.10;6.00;;;;;;;3.79;100.00;100689.50;5049149;28;20029;-68
2023/12/17 07:16:28;;;;;;;10.65;6.28;;;;;;;3.94;100.00;100738.78;5047335;28;20574;-69
2023/12/17 07:18:53;;;;;;;10.68;6.18;;;;;;;3.98;100.00;100743.81;5034567;28;20100;-68
2023/12/17 07:21:18;;;;;;;10.55;6.28;;;;;;;3.93;100.00;100734.56;5027974;28;20029;-68
2023/12/17 07:23:44;;;;;;;10.82;6.25;;;;;;;3.79;100.00;100712.66;5047823;28;20036;-67
2023/12/17 07:26:09;;;;;;;10.60;6.40;;;;;;;4.06;100.00;100753.00;5047369;28;20458;-69
2023/12/17 07:28:35;;;;;;;11.40;6.32;;;;;;;3.99;100.00;100745.47;5049105;28;20045;-68
2023/12/17 07:31:00;;;;;;;10.00;6.63;;;;;;;4.00;100.00;100754.88;5031956;28;20117;-69
2023/12/17 07:33:28;;;;;;;10.57;6.57;;;;;;;3.99;100.00;100757.50;5041099;28;20045;-69
2023/12/17 07:35:53;;;;;;;10.82;6.88;;;;;;;3.97;100.00;100752.41;5030438;28;20388;-69
2023/12/17 07:38:19;;;;;;;12.82;7.22;;;;;;;3.95;100.00;100753.38;5033654;28;20025;-68
2023/12/17 07:40:46;;;;;;;11.80;7.03;;;;;;;4.00;100.00;100761.78;5034602;28;20025;-68
2023/12/17 07:43:14;;;;;;;9.85;6.53;;;;;;;3.91;100.00;100760.34;5029953;28;20039;-68
2023/12/17 07:45:40;;;;;;;12.15;7.00;;;;;;;3.91;100.00;100768.06;5036098;28;20645;-68
2023/12/17 07:48:05;;;;;;;10.38;6.47;;;;;;;4.00;100.00;100777.22;5048933;28;20125;-69
2023/12/17 07:50:31;;;;;;;11.68;6.88;;;;;;;3.94;100.00;100762.81;5034330;28;20036;-67
2023/12/17 07:52:56;;;;;;;10.48;6.50;;;;;;;3.98;100.00;100773.84;5039058;28;20025;-68
2023/12/17 07:55:22;;;;;;;10.70;5.93;;;;;;;3.92;100.00;100776.63;5032527;28;20048;-69
2023/12/17 07:57:50;;;;;;;9.45;6.22;;;;;;;3.89;100.00;100774.13;5033601;28;20555;-68
2023/12/17 08:00:15;;;;;;;10.23;6.55;;;;;;;3.85;100.00;100768.25;5048067;28;20033;-68
2023/12/17 08:02:45;;;;;;;11.02;6.90;;;;;;;3.91;100.00;100777.53;5032690;28;20029;-67
2023/12/17 08:05:10;;;;;;;11.63;6.45;;;;;;;3.75;100.00;100779.72;5027342;28;20056;-67
2023/12/17 08:07:37;;;;;;;11.15;6.22;;;;;;;3.84;100.00;100787.16;5035307;28;20187;-69
2023/12/17 08:10:06;;;;;;;11.50;6.82;;;;;;;3.61;100.00;100734.72;5051827;28;20663;-70
2023/12/17 08:12:32;;;;;;;14.30;7.32;;;;;;;3.86;100.00;100772.50;5041112;28;20035;-69
2023/12/17 08:14:57;;;;;;;12.10;6.32;;;;;;;3.90;100.00;100773.25;5045483;28;20044;-68
2023/12/17 08:17:23;;;;;;;12.15;6.53;;;;;;;3.88;100.00;100775.03;5043270;28;20044;-68
2023/12/17 08:19:50;;;;;;;11.90;7.57;;;;;;;3.83;100.00;100776.03;5048393;28;20033;-69
2023/12/17 08:22:19;;;;;;;10.32;6.35;;;;;;;3.83;100.00;100790.63;5042143;28;20653;-70
2023/12/17 08:24:47;;;;;;;9.77;6.90;;;;;;;3.85;100.00;100778.53;5031183;28;20075;-67
2023/12/17 08:27:13;;;;;;;12.40;6.80;;;;;;;3.84;100.00;100797.47;5049328;28;20044;-68
2023/12/17 08:29:39;;;;;;;11.85;6.43;;;;;;;3.84;100.00;100782.00;5048360;28;20107;-69
2023/12/17 08:32:08;;;;;;;11.90;7.75;;;;;;;3.95;100.00;100804.84;5038083;28;20039;-69
2023/12/17 08:34:33;;;;;;;17.15;9.00;;;;;;;3.86;100.00;100805.97;5034133;28;20024;-68
2023/12/17 08:36:59;;;;;;;16.48;10.75;;;;;;;3.83;100.00;100795.75;5027711;28;20888;-69
2023/12/17 08:39:25;;;;;;;16.02;9.10;;;;;;;3.81;100.00;100800.94;5050400;28;20051;-67
2023/12/17 08:41:51;;;;;;;15.15;9.77;;;;;;;3.83;100.00;100806.06;5041837;28;20751;-68
2023/12/17 08:44:22;;;;;;;11.93;7.93;;;;;;;3.69;100.00;100797.91;5051796;28;20026;-68
2023/12/17 08:46:48;;;;;;;11.30;7.38;;;;;;;3.50;100.00;100752.19;5029371;28;20223;-68
2023/12/17 08:49:14;;;;;;;12.45;6.43;;;;;;;3.89;100.00;100818.75;5036515;28;20083;-69
2023/12/17 08:51:40;;;;;;;11.18;6.50;;;;;;;3.87;100.00;100812.81;5029138;28;20738;-67
2023/12/17 08:54:05;;;;;;;10.75;6.40;;;;;;;3.99;100.00;100817.56;5044361;28;20219;-67
2023/12/17 08:56:33;;;;;;;9.10;5.95;;;;;;;3.66;100.00;100763.69;5045488;28;20724;-68
2023/12/17 08:58:58;;;;;;;11.60;6.20;;;;;;;4.09;100.00;100812.09;5046158;28;20036;-68
2023/12/17 09:01:26;;;;;;;9.60;6.43;;;;;;;3.87;100.00;100787.06;5050514;28;20644;-69
2023/12/17 09:03:51;;;;;;;9.10;5.85;;;;;;;3.89;100.00;100810.16;5040538;28;20119;-68
2023/12/17 09:06:17;;;;;;;10.15;5.75;;;;;;;3.99;100.00;100816.72;5045754;28;20376;-68
2023/12/17 09:08:42;;;;;;;8.77;5.47;;;;;;;3.74;100.00;100771.19;5043412;28;20032;-68
2023/12/17 09:11:07;;;;;;;9.25;5.65;;;;;;;4.02;100.00;100824.34;5040032;28;21008;-68
2023/12/17 09:13:35;;;;;;;10.25;6.32;;;;;;;3.97;100.00;100803.91;5045503;28;20044;-67
2023/12/17 09:16:00;;;;;;;10.65;6.00;;;;;;;4.01;100.00;100820.09;5047714;28;20038;-69
2023/12/17 09:18:26;;;;;;;12.73;5.68;;;;;;;3.79;100.00;100779.56;5031345;28;20024;-67
2023/12/17 09:20:53;;;;;;;12.05;6.28;;;;;;;4.13;100.00;100808.56;5047117;28;20029;-68
2023/12/17 09:23:21;;;;;;;10.73;6.00;;;;;;;3.98;100.00;100782.41;5045935;28;20029;-69
2023/12/17 09:25:48;;;;;;;11.18;6.13;;;;;;;4.00;100.00;100810.69;5041076;28;20037;-67
2023/12/17 09:28:14;;;;;;;10.35;6.15;;;;;;;4.11;100.00;100811.19;5043664;28;20033;-66
2023/12/17 09:30:42;;;;;;;9.45;6.10;;;;;;;4.09;100.00;100802.66;5043547;28;20128;-70
2023/12/17 09:33:07;;;;;;;9.43;5.97;;;;;;;4.00;100.00;100796.06;5040244;28;20553;-68
2023/12/17 09:35:33;;;;;;;9.43;6.00;;;;;;;4.25;100.00;100810.72;5028295;28;20078;-69
2023/12/17 09:37:58;;;;;;;10.70;5.53;;;;;;;4.26;100.00;100812.41;5033783;28;20044;-67
2023/12/17 09:40:24;;;;;;;9.15;5.30;;;;;;;4.28;100.00;100817.50;5031954;28;20621;-67
2023/12/17 09:42:52;;;;;;;7.95;4.80;;;;;;;4.31;100.00;100818.25;5041866;28;20086;-67
2023/12/17 09:45:18;;;;;;;9.07;5.07;;;;;;;4.32;100.00;100809.63;5029443;28;20024;-69
2023/12/17 09:47:43;;;;;;;9.43;5.47;;;;;;;4.43;100.00;100804.97;5027475;28;20063;-69
2023/12/17 09:50:10;;;;;;;8.80;5.13;;;;;;;4.37;100.00;100792.28;5032480;28;20708;-68
2023/12/17 09:52:39;;;;;;;8.13;4.57;;;;;;;4.50;100.00;100805.59;5044550;28;20036;-68
2023/12/17 09:55:05;;;;;;;;;;;;;;;4.50;100.00;100810.75;5032555;28;20504;-68
2023/12/17 09:57:30;;;;;;;9.45;5.30;;;;;;;4.36;100.00;100802.63;5026887;28;19927;-68
2023/12/17 10:00:00;;;;;;;8.65;5.60;;;;;;;4.43;100.00;100797.25;5038439;28;20066;-68
2023/12/17 10:02:26;;;;;;;9.90;5.32;;;;;;;4.48;100.00;100773.88;5047551;28;20049;-67
2023/12/17 10:04:51;;;;;;;8.93;5.40;;;;;;;4.53;100.00;100761.69;5044525;28;20032;-68
2023/12/17 10:07:19;;;;;;;10.40;5.38;;;;;;;4.31;100.00;100710.09;5031485;28;21384;-66
2023/12/17 10:09:44;;;;;;;7.95;4.70;;;;;;;4.74;100.00;100765.22;5049222;28;20141;-72
2023/12/17 10:12:11;;;;;;;9.00;5.00;;;;;;;4.91;99.79;100771.50;5047710;28;20659;-67
2023/12/17 10:14:40;;;;;;;10.20;6.88;;;;;;;4.70;100.00;100735.31;5035758;28;20025;-68
2023/12/17 10:17:05;;;;;;;10.20;5.90;;;;;;;4.88;98.89;100781.97;5031074;28;20543;-69
2023/12/17 10:19:33;;;;;;;9.95;5.40;;;;;;;4.85;99.94;100776.91;5045475;28;20033;-68
2023/12/17 10:22:06;;;;;;;7.80;5.05;;;;;;;4.83;99.08;100771.81;5030640;28;20857;-68
2023/12/17 10:24:36;;;;;;;8.73;5.10;;;;;;;4.86;98.14;100766.53;5026654;28;20032;-67
2023/12/17 10:27:16;;;;;;;10.75;5.00;;;;;;;4.95;98.36;100766.22;5028067;28;20468;-68
2023/12/17 10:29:47;;;;;;;8.30;4.97;;;;;;;5.03;97.57;100757.34;5030164;28;20464;-68
2023/12/17 10:32:18;;;;;;;9.50;5.00;;;;;;;5.14;97.31;100743.16;5044998;28;20033;-71
2023/12/17 10:34:44;;;;;;;10.15;4.88;;;;;;;5.19;97.59;100753.31;5044492;28;20033;-68
2023/12/17 10:37:10;;;;;;;11.43;5.57;;;;;;;5.05;97.71;100707.41;5047690;28;20067;-72
2023/12/17 10:39:35;;;;;;;7.90;5.18;;;;;;;5.28;96.79;100736.66;5039930;28;20514;-70
2023/12/17 10:42:01;;;;;;;10.27;6.13;;;;;;;5.05;95.84;100691.91;5035308;28;20113;-71
2023/12/17 10:44:28;;;;;;;9.45;5.07;;;;;;;5.35;94.98;100730.34;5048476;28;20491;-71
2023/12/17 10:46:54;;;;;;;9.80;4.97;;;;;;;5.35;96.48;100722.59;5042908;28;20036;-62
2023/12/17 10:49:22;;;;;;;9.13;4.85;;;;;;;5.39;95.08;100719.84;5042215;28;20040;-63
2023/12/17 10:51:50;;;;;;;9.38;5.38;;;;;;;5.35;94.48;100714.88;5032295;28;20039;-63
2023/12/17 10:54:16;;;;;;;8.73;5.15;;;;;;;5.51;94.35;100712.50;5045234;28;20052;-62
2023/12/17 10:56:46;;;;;;;10.30;5.30;;;;;;;5.39;93.33;100706.09;5036294;28;20064;-63
2023/12/17 10:59:18;;;;;;;9.13;4.93;;;;;;;5.52;93.56;100706.47;5040855;28;20032;-63
2023/12/17 11:01:49;;;;;;;9.73;5.15;;;;;;;5.43;93.70;100696.50;5034389;28;20031;-62
2023/12/17 11:04:17;;;;;;;7.85;4.32;;;;;;;5.54;90.74;100696.91;5042852;28;20052;-62
2023/12/17 11:06:45;;;;;;;8.20;4.45;;;;;;;5.30;91.79;100660.88;5041541;28;20029;-61
2023/12/17 11:09:10;;;;;;;10.50;4.85;;;;;;;5.61;91.84;100698.34;5028395;28;20308;-63
2023/12/17 11:11:40;;;;;;;9.55;4.80;;;;;;;5.42;91.41;100649.22;5042181;28;20142;-62
2023/12/17 11:14:05;;;;;;;7.72;4.20;;;;;;;5.73;89.56;100700.44;5025639;28;20033;-63
2023/12/17 11:16:31;;;;;;;7.03;3.97;;;;;;;5.65;87.45;100687.00;5043134;28;20037;-63